Flight Track Log - Related Links

Times and Time Zones

All times are in EDT time to prevent confusion due to time zone crossing. See the N188KM flight status page for this flight to view local times or setup timezone preferences in your user account.

Time Position Orientation Groundspeed Altitude Reporting Facility
EDT Latitude Longitude Course Direction KTS MPH feet Rate Location/Type
Tue 05:12:49 PM 40.8333 -74.2667 75° East 104 120 1,800  Level New York TRACON
Tue 05:13:54 PM 40.8000 -74.2500 159° South 111 128 2,800 912 Climbing New York TRACON
Tue 05:14:54 PM 40.8000 -74.3000 270° West 123 142 3,700 850 Climbing New York TRACON
Tue 05:15:54 PM 40.8333 -74.3000 360° North 115 132 4,500 744 Climbing New York TRACON
Tue 05:16:55 PM 40.8667 -74.3000 360° North 120 138 5,200 714 Climbing New York TRACON
Tue 05:18:00 PM 41.1556 -74.1056 75° East  Level FlightAware Approximate
Tue 05:18:00 PM 40.8833 -74.2667 57° Northeast 118 136 6,000  Level New York TRACON
Tue 05:18:55 PM 40.9167 -74.2333 37° Northeast 138 159 6,000 50 Level New York TRACON
Tue 05:20:00 PM 40.9667 -74.2167 14° North 152 175 6,100  Climbing New York TRACON
Tue 05:20:55 PM 41.0000 -74.2000 21° North 155 178 6,000 -52 Descending New York TRACON
Tue 05:21:55 PM 41.0333 -74.1833 21° North 159 183 6,000  Level New York TRACON
Tue 05:23:00 PM 41.0833 -74.1667 14° North 161 185 6,000  Level New York TRACON
Tue 05:24:00 PM 41.1333 -74.1500 14° North 160 184 6,000  Level New York TRACON
Tue 05:25:00 PM 41.1667 -74.1167 37° Northeast 163 188 6,000 -104 Level New York TRACON
Tue 05:25:55 PM 41.1667 -74.0667 90° East 160 184 5,800 -365 Descending New York TRACON
Tue 05:26:55 PM 41.1833 -74.0167 66° East 161 185 5,300 -450 Descending New York TRACON
Tue 05:27:55 PM 41.2000 -73.9500 72° East 167 192 4,900 -150 Descending New York TRACON
Tue 05:28:55 PM 41.2167 -73.9000 66° East 155 178 5,000 50 Climbing New York TRACON
Tue 05:29:55 PM 41.2167 -73.8500 90° East 152 175 5,000  Level New York TRACON
Tue 05:30:54 PM 41.2333 -73.8000 66° East 147 169 5,000  Level New York TRACON
Tue 05:31:55 PM 41.2500 -73.7500 66° East 145 167 5,000  Level New York TRACON
Tue 05:32:55 PM 41.2500 -73.7000 90° East 147 169 5,000 50 Level New York TRACON
Tue 05:33:55 PM 41.2667 -73.6333 72° East 157 181 5,100  Climbing New York TRACON
Tue 05:35:00 PM 41.2833 -73.5833 66° East 156 180 5,000 -48 Descending New York TRACON
Tue 05:36:00 PM 41.2667 -73.5167 108° East 154 177 5,000  Level New York TRACON
Tue 05:36:55 PM 41.2667 -73.4667 90° East 152 175 5,000  Level New York TRACON
Tue 05:37:55 PM 41.2667 -73.4167 90° East 155 178 5,000 50 Level New York TRACON
Tue 05:38:55 PM 41.2500 -73.3667 114° Southeast 151 174 5,100  Climbing New York TRACON
Tue 05:39:55 PM 41.2500 -73.3000 90° East 153 176 5,000 -50 Descending New York TRACON
Tue 05:40:55 PM 41.2333 -73.2500 114° Southeast 151 174 5,000  Level New York TRACON
Tue 05:41:55 PM 41.2333 -73.2000 90° East 150 173 5,000  Level New York TRACON
Tue 05:42:55 PM 41.2000 -73.1833 159° South 167 192 5,000  Level New York TRACON
Tue 05:43:55 PM 41.1500 -73.2000 194° South 162 186 5,000  Level New York TRACON
Tue 05:44:55 PM 41.1000 -73.2167 194° South 157 181 5,000 -300 Level New York TRACON
Tue 05:45:55 PM 41.0667 -73.2333 201° Southwest 175 201 4,400 -600 Descending New York TRACON
Tue 05:46:55 PM 41.0167 -73.2333 180° South 166 191 3,800 -650 Descending New York TRACON
Tue 05:47:55 PM 40.9667 -73.2500 194° South 163 188 3,100 -400 Descending New York TRACON
Tue 05:48:55 PM 40.9333 -73.2667 201° Southwest 150 173 3,000 -50 Descending New York TRACON
Tue 05:49:55 PM 40.9000 -73.2833 201° Southwest 133 153 3,000 -150 Level New York TRACON
Tue 05:50:55 PM 40.8667 -73.3167 217° Southwest 135 155 2,700 -333 Descending New York TRACON
Tue 05:52:01 PM 40.8167 -73.3333 194° South 141 162 2,300 -450 Descending New York TRACON
Tue 05:52:55 PM 40.8000 -73.3667 237° Southwest 144 166 1,800 -526 Descending New York TRACON
Tue 05:53:55 PM 40.7667 -73.4167 229° Southwest 137 158 1,300 -700 Descending New York TRACON
Tue 05:54:55 PM 40.7500 -73.4167 180° South 95 109 400 -900 Descending New York TRACON
Tue 05:56:00 PM 40.7288 -73.4134 229° Southwest  Level Estimated
Tue 06:03:00 PM 40.7288 -73.4134 229° Southwest  Level Estimated
Tue 06:04:00 PM 40.7288 -73.4134 229° Southwest  Level Estimated

Login

Don't have an account? Register now (free) for customized features, flight alerts, and more!